Aquasco, Maryland
Current Conditions -  °F | °C
As of 6:58 PM on Monday 24 Nov 2014 (Local Time) from KADW Reporting Station
Clear Clear  
Wind Chill: 64°   Ceiling: Unl
Heat Index: 64°   Visibility: 10mi
Dew Point: 53°   Wind: 10mph
Humidity: 68%   Direction: 190°S
Pressure: 29.7"   Gusts: NA
Location:  38.58°N, 76.73°W
Report Text: KADW 242358Z AUTO 19009KT 10SM CLR 18/12 A2970 RMK AO2 SLP063 T01780119 10222 20175 52018 $
Loading
Personal Weather Stations






























Interactive Weather Map New forecast layout! Learn more

10-Day Weather Forecast

Advertisements
Track Severe Weather on mobile